createdAt,value
2023-01-01T00:03:04.173Z,10.00
2023-01-01T00:08:05.910Z,8.07
2023-01-01T00:13:07.352Z,7.72
2023-01-01T00:18:08.784Z,6.82
2023-01-01T00:23:10.322Z,7.90
2023-01-01T00:28:11.855Z,8.98
2023-01-01T00:33:13.293Z,8.55
2023-01-01T00:38:14.779Z,8.20
2023-01-01T00:43:16.184Z,7.45
2023-01-01T00:48:17.605Z,7.65
2023-01-01T00:53:20.557Z,6.35
2023-01-01T00:58:24.354Z,5.38
2023-01-01T01:03:28.966Z,6.85
2023-01-01T01:08:32.492Z,6.35
2023-01-01T01:13:34.628Z,6.93
2023-01-01T01:18:36.246Z,6.97
2023-01-01T01:23:37.808Z,7.18
2023-01-01T01:28:45.373Z,6.35
2023-01-01T01:33:50.698Z,7.25
2023-01-01T01:38:52.577Z,7.63
2023-01-01T01:44:02.355Z,8.85
2023-01-01T01:49:14.065Z,7.65
2023-01-01T01:54:21.722Z,8.35
2023-01-01T01:59:27.186Z,7.38
2023-01-01T02:04:29.539Z,8.45
2023-01-01T02:09:31.040Z,7.65
2023-01-01T02:14:33.547Z,8.60
2023-01-01T02:19:40.958Z,7.22
2023-01-01T02:24:51.419Z,8.23
2023-01-01T02:29:57.327Z,8.68
2023-01-01T02:35:26.674Z,8.52
2023-01-01T02:40:29.276Z,9.68
2023-01-01T02:45:31.646Z,10.68
2023-01-01T02:50:35.048Z,10.43
2023-01-01T02:56:02.432Z,12.57
2023-01-01T03:01:12.666Z,12.40
2023-01-01T03:06:37.800Z,12.25
2023-01-01T03:11:57.017Z,13.15
2023-01-01T03:17:21.478Z,12.43
2023-01-01T03:22:30.610Z,14.18
2023-01-01T03:27:35.666Z,14.30
2023-01-01T03:33:01.161Z,15.27
2023-01-01T03:38:06.254Z,16.23
2023-01-01T03:43:39.579Z,15.80
2023-01-01T03:49:02.548Z,18.98
2023-01-01T03:54:18.228Z,19.05
2023-01-01T03:59:26.150Z,21.25
2023-01-01T04:04:28.332Z,23.42
2023-01-01T04:09:33.018Z,25.80
2023-01-01T04:14:38.137Z,30.92
2023-01-01T04:19:39.692Z,34.20
2023-01-01T04:24:41.472Z,30.75
2023-01-01T04:29:42.936Z,31.25
2023-01-01T04:34:44.378Z,29.73
2023-01-01T04:39:45.856Z,30.33
2023-01-01T04:44:47.467Z,29.55
2023-01-01T04:49:48.942Z,28.23
2023-01-01T04:54:50.452Z,26.80
2023-01-01T04:59:51.933Z,25.58
2023-01-01T05:04:53.398Z,26.17
2023-01-01T05:09:54.855Z,26.02
2023-01-01T05:14:56.306Z,25.40
2023-01-01T05:19:58.359Z,26.38
2023-01-01T05:24:59.852Z,26.33
2023-01-01T05:30:01.341Z,24.27
2023-01-01T05:35:03.471Z,25.27
2023-01-01T05:40:05.887Z,22.50
2023-01-01T05:45:07.934Z,23.27
2023-01-01T05:55:10.185Z,20.45
2023-01-01T06:00:12.290Z,19.45
2023-01-01T06:05:13.886Z,19.35
2023-01-01T06:10:15.518Z,19.17
2023-01-01T06:15:16.989Z,18.60
2023-01-01T06:20:19.092Z,17.63
2023-01-01T06:25:20.618Z,14.63
2023-01-01T06:30:22.058Z,14.45
2023-01-01T06:35:23.469Z,13.70
2023-01-01T06:40:24.951Z,11.38
2023-01-01T06:45:26.369Z,9.75
2023-01-01T06:50:27.871Z,9.18
2023-01-01T06:55:29.528Z,7.50
2023-01-01T07:00:30.994Z,6.63
2023-01-01T07:05:32.534Z,6.38
2023-01-01T07:10:33.975Z,5.22
2023-01-01T07:15:35.804Z,5.38
2023-01-01T07:20:37.283Z,5.55
2023-01-01T07:25:41.497Z,5.10
2023-01-01T07:30:43.293Z,4.85
2023-01-01T07:35:45.836Z,4.63
2023-01-01T07:40:47.411Z,5.07
2023-01-01T07:45:48.903Z,6.38
2023-01-01T07:50:50.759Z,5.97
2023-01-01T07:55:52.336Z,5.95
2023-01-01T08:00:53.939Z,5.00
2023-01-01T08:05:55.361Z,4.78
2023-01-01T08:11:03.758Z,4.97
2023-01-01T08:16:06.167Z,3.90
2023-01-01T08:21:07.767Z,3.72
2023-01-01T08:26:16.284Z,4.43
2023-01-01T08:31:17.795Z,3.55
2023-01-01T08:36:20.766Z,3.25
2023-01-01T08:41:22.320Z,3.10
2023-01-01T08:46:23.858Z,3.45
2023-01-01T08:51:25.466Z,2.47
2023-01-01T08:56:26.992Z,3.00
2023-01-01T09:01:28.661Z,2.85
2023-01-01T09:06:30.221Z,3.03
2023-01-01T09:11:31.753Z,3.78
2023-01-01T09:16:33.284Z,3.55
2023-01-01T09:21:35.216Z,3.13
2023-01-01T09:26:36.634Z,4.30
2023-01-01T09:31:38.144Z,3.25
2023-01-01T09:36:39.677Z,2.60
2023-01-01T09:41:57.924Z,2.58
2023-01-01T09:47:02.328Z,2.67
2023-01-01T09:52:05.688Z,2.58
2023-01-01T09:57:14.873Z,2.53
2023-01-01T10:02:36.371Z,2.13
2023-01-01T10:07:50.615Z,2.75
2023-01-01T10:18:22.035Z,2.38
2023-01-01T10:23:28.098Z,3.45
2023-01-01T10:28:44.996Z,2.20
2023-01-01T10:33:47.550Z,2.38
2023-01-01T10:38:50.686Z,2.63
2023-01-01T10:43:52.238Z,2.97
2023-01-01T10:49:10.919Z,2.28
2023-01-01T10:54:35.427Z,2.72
2023-01-01T10:59:38.025Z,2.78
2023-01-01T11:04:39.534Z,3.15
2023-01-01T11:09:44.999Z,2.90
2023-01-01T11:14:59.416Z,3.42
2023-01-01T11:20:04.354Z,2.72
2023-01-01T11:25:26.805Z,4.28
2023-01-01T11:30:29.345Z,3.35
2023-01-01T11:35:36.487Z,2.72
2023-01-01T11:40:45.875Z,3.78
2023-01-01T11:45:48.640Z,3.78
2023-01-01T11:50:54.963Z,4.22
2023-01-01T11:56:02.110Z,3.92
2023-01-01T12:01:42.502Z,3.50
2023-01-01T12:07:02.487Z,4.47
2023-01-01T12:12:20.757Z,3.90
2023-01-01T12:17:39.784Z,3.35
2023-01-01T12:22:41.679Z,2.90
2023-01-01T12:27:52.248Z,4.22
2023-01-01T12:33:12.407Z,2.78
2023-01-01T12:38:38.509Z,3.75
2023-01-01T12:43:43.592Z,2.90
2023-01-01T12:48:48.369Z,3.30
2023-01-01T12:54:30.908Z,2.95
2023-01-01T12:59:37.042Z,3.72
2023-01-01T13:04:40.142Z,3.53
2023-01-01T13:09:48.307Z,3.55
2023-01-01T13:14:51.228Z,3.45
2023-01-01T13:19:57.437Z,4.50
2023-01-01T13:25:10.627Z,3.53
2023-01-01T13:30:35.306Z,2.63
2023-01-01T13:35:36.792Z,3.70
2023-01-01T13:40:49.735Z,2.92
2023-01-01T13:46:12.795Z,3.70
2023-01-01T13:52:05.342Z,3.33
2023-01-01T13:57:36.458Z,3.20
2023-01-01T14:02:47.596Z,3.50
2023-01-01T14:07:54.762Z,2.95
2023-01-01T14:13:05.263Z,4.20
2023-01-01T14:18:12.920Z,3.05
2023-01-01T14:23:17.165Z,2.33
2023-01-01T14:28:25.743Z,3.13
2023-01-01T14:33:29.852Z,2.95
2023-01-01T14:38:36.024Z,2.42
2023-01-01T14:43:39.780Z,2.25
2023-01-01T14:48:50.575Z,3.30
2023-01-01T14:53:55.631Z,2.67
2023-01-01T14:59:24.046Z,2.85
2023-01-01T15:04:28.265Z,3.53
2023-01-01T15:09:31.876Z,3.67
2023-01-01T15:14:37.195Z,4.80
2023-01-01T15:19:41.351Z,2.65
2023-01-01T15:24:45.616Z,2.55
2023-01-01T15:29:50.660Z,4.43
2023-01-01T15:34:54.788Z,3.08
2023-01-01T15:39:58.344Z,3.17
2023-01-01T15:45:23.705Z,2.93
2023-01-01T15:50:29.584Z,4.13
2023-01-01T15:55:34.410Z,3.15
2023-01-01T16:00:38.193Z,2.97
2023-01-01T16:05:53.202Z,2.63
2023-01-01T16:10:54.705Z,3.58
2023-01-01T16:15:59.348Z,3.85
2023-01-01T16:26:02.938Z,2.80
2023-01-01T16:31:04.642Z,5.18
2023-01-01T16:36:06.265Z,3.67
2023-01-01T16:41:15.724Z,2.97
2023-01-01T16:46:17.201Z,3.72
2023-01-01T16:51:21.214Z,3.30
2023-01-01T16:56:22.960Z,4.10
2023-01-01T17:01:24.800Z,4.63
2023-01-01T17:06:26.361Z,3.33
2023-01-01T17:11:27.891Z,4.13
2023-01-01T17:16:34.709Z,2.20
2023-01-01T17:21:41.021Z,4.22
2023-01-01T17:26:42.776Z,5.63
2023-01-01T17:31:44.322Z,5.05
2023-01-01T17:36:46.044Z,6.65
2023-01-01T17:41:48.988Z,6.28
2023-01-01T17:46:50.629Z,4.18
2023-01-01T17:51:52.177Z,2.90
2023-01-01T17:56:53.630Z,4.38
2023-01-01T18:01:55.336Z,5.95
2023-01-01T18:07:01.004Z,4.18
2023-01-01T18:12:06.273Z,3.75
2023-01-01T18:17:07.737Z,4.88
2023-01-01T18:22:09.201Z,4.75
2023-01-01T18:27:10.690Z,5.65
2023-01-01T18:32:12.164Z,3.50
2023-01-01T18:37:13.728Z,4.22
2023-01-01T18:42:35.037Z,4.70
2023-01-01T18:47:36.715Z,4.55
2023-01-01T18:52:38.174Z,4.22
2023-01-01T18:57:40.290Z,5.18
2023-01-01T19:02:52.771Z,4.28
2023-01-01T19:08:17.086Z,5.63
2023-01-01T19:18:24.571Z,5.63
2023-01-01T19:23:26.033Z,5.03
2023-01-01T19:28:35.804Z,4.60
2023-01-01T19:33:37.328Z,5.20
2023-01-01T19:38:39.660Z,5.60
2023-01-01T19:43:41.112Z,8.23
2023-01-01T19:48:42.654Z,6.20
2023-01-01T19:53:44.184Z,6.97
2023-01-01T19:58:46.800Z,6.75
2023-01-01T20:03:57.387Z,8.40
2023-01-01T20:08:59.101Z,6.60
2023-01-01T20:14:00.790Z,7.70
2023-01-01T20:19:02.257Z,6.35
2023-01-01T20:24:04.001Z,6.57
2023-01-01T20:29:20.378Z,7.70
2023-01-01T20:34:22.998Z,4.40
2023-01-01T20:39:24.551Z,4.35
2023-01-01T20:44:26.402Z,3.97
2023-01-01T20:49:27.992Z,4.38
2023-01-01T20:54:29.483Z,4.25
2023-01-01T20:59:36.807Z,5.30
2023-01-01T21:04:40.063Z,5.30
2023-01-01T21:09:42.089Z,4.90
2023-01-01T21:14:43.640Z,6.18
2023-01-01T21:19:45.335Z,5.90
2023-01-01T21:24:53.374Z,4.30
2023-01-01T21:29:57.560Z,4.90
2023-01-01T21:34:59.168Z,4.32
2023-01-01T21:40:07.861Z,4.35
2023-01-01T21:45:18.957Z,4.57
2023-01-01T21:50:29.457Z,4.85
2023-01-01T21:55:51.952Z,4.20
2023-01-01T22:00:53.598Z,4.13
2023-01-01T22:05:59.265Z,4.10
2023-01-01T22:11:01.361Z,3.95
2023-01-01T22:16:03.087Z,4.93
2023-01-01T22:21:04.767Z,4.47
2023-01-01T22:26:15.375Z,4.43
2023-01-01T22:31:22.039Z,4.03
2023-01-01T22:36:33.346Z,3.65
2023-01-01T22:41:34.902Z,3.67
2023-01-01T22:46:39.135Z,3.33
2023-01-01T22:51:43.421Z,3.50
2023-01-01T22:56:44.862Z,3.38
2023-01-01T23:01:46.569Z,4.63
2023-01-01T23:06:48.174Z,3.45
2023-01-01T23:11:49.874Z,2.80
2023-01-01T23:16:51.353Z,4.05
2023-01-01T23:21:52.987Z,3.13
2023-01-01T23:26:54.594Z,4.10
2023-01-01T23:31:56.846Z,4.32
2023-01-01T23:36:58.695Z,3.70
2023-01-01T23:42:00.404Z,3.40
2023-01-01T23:47:01.961Z,4.45
2023-01-01T23:52:04.018Z,3.40
2023-01-01T23:57:05.590Z,3.63
